createdAt,value
2022-11-21T00:01:24.832Z,100183.69
2022-11-21T00:07:09.927Z,100106.06
2022-11-21T00:16:25.188Z,100060.09
2022-11-21T00:28:11.210Z,100162.94
2022-11-21T00:30:57.373Z,100167.66
2022-11-21T00:36:41.511Z,99798.41
2022-11-21T00:42:25.666Z,99748.22
2022-11-21T00:44:56.874Z,99792.47
2022-11-21T00:47:30.420Z,99794.09
2022-11-21T00:50:02.865Z,99895.66
2022-11-21T00:52:33.421Z,100122.91
2022-11-21T00:55:05.347Z,99992.78
2022-11-21T00:57:35.382Z,99975.00
2022-11-21T01:00:08.343Z,99709.41
2022-11-21T01:02:37.864Z,100016.31
2022-11-21T01:05:08.445Z,100128.47
2022-11-21T01:07:38.228Z,100125.38
2022-11-21T01:10:10.314Z,100145.78
2022-11-21T01:12:39.606Z,100127.94
2022-11-21T01:15:11.535Z,100039.47
2022-11-21T01:17:42.655Z,100157.59
2022-11-21T01:20:13.168Z,99712.69
2022-11-21T01:22:43.553Z,99725.03
2022-11-21T01:25:13.370Z,99739.59
2022-11-21T01:27:44.181Z,99786.84
2022-11-21T01:30:16.164Z,99716.16
2022-11-21T01:32:49.609Z,100088.56
2022-11-21T01:35:21.504Z,100057.47
2022-11-21T01:37:51.324Z,100061.94
2022-11-21T01:40:20.733Z,100081.00
2022-11-21T01:42:59.917Z,100101.47
2022-11-21T01:45:56.731Z,100104.84
2022-11-21T01:48:30.620Z,100078.88
2022-11-21T01:51:04.723Z,100040.19
2022-11-21T01:53:35.419Z,100048.72
2022-11-21T01:56:05.710Z,100087.84
2022-11-21T01:58:37.013Z,100094.81
2022-11-21T02:01:11.497Z,100092.69
2022-11-21T02:03:44.839Z,100101.53
2022-11-21T02:06:15.097Z,100030.25
2022-11-21T02:08:46.101Z,100093.28
2022-11-21T02:11:23.081Z,100044.59
2022-11-21T02:13:52.635Z,100103.03
2022-11-21T02:16:23.589Z,100091.28
2022-11-21T02:18:53.340Z,100066.81
2022-11-21T02:21:29.227Z,100102.81
2022-11-21T02:24:05.824Z,100132.06
2022-11-21T02:26:37.149Z,100132.53
2022-11-21T02:29:06.327Z,99913.56
2022-11-21T02:31:36.574Z,100108.97
2022-11-21T02:34:06.973Z,99889.56
2022-11-21T02:36:44.202Z,99741.09
2022-11-21T02:39:19.789Z,99778.69
2022-11-21T02:41:59.156Z,99864.38
2022-11-21T02:44:35.719Z,99974.44
2022-11-21T02:47:07.070Z,100167.19
2022-11-21T02:49:49.458Z,99996.84
2022-11-21T02:52:23.062Z,99751.94
2022-11-21T02:54:53.634Z,99742.56
2022-11-21T02:57:24.874Z,99896.41
2022-11-21T02:59:54.677Z,99705.03
2022-11-21T03:02:27.150Z,100099.78
2022-11-21T03:04:58.117Z,99737.59
2022-11-21T03:07:28.137Z,99796.97
2022-11-21T03:09:58.091Z,99780.56
2022-11-21T03:12:29.654Z,100005.91
2022-11-21T03:14:59.046Z,99991.16
2022-11-21T03:17:28.100Z,100100.81
2022-11-21T03:19:57.645Z,100115.31
2022-11-21T03:22:27.094Z,99837.69
2022-11-21T03:24:57.591Z,99911.84
2022-11-21T03:27:28.816Z,100113.66
2022-11-21T03:29:58.577Z,99778.50
2022-11-21T03:32:27.972Z,100133.81
2022-11-21T03:35:00.389Z,100120.63
2022-11-21T03:37:29.638Z,100123.84
2022-11-21T03:39:59.234Z,100130.59
2022-11-21T03:42:29.852Z,100118.75
2022-11-21T03:45:01.723Z,99941.56
2022-11-21T03:47:31.863Z,99745.28
2022-11-21T03:50:02.831Z,99983.03
2022-11-21T03:52:35.875Z,100050.19
2022-11-21T03:55:11.102Z,99767.97
2022-11-21T03:57:42.553Z,100108.25
2022-11-21T04:00:13.297Z,100082.00
2022-11-21T04:02:42.691Z,99944.88
2022-11-21T04:05:13.231Z,99758.56
2022-11-21T04:07:42.725Z,100119.50
2022-11-21T04:10:12.317Z,100112.25
2022-11-21T04:12:42.905Z,100107.94
2022-11-21T04:15:14.122Z,100104.44
2022-11-21T04:17:43.293Z,100057.28
2022-11-21T04:20:13.067Z,100096.72
2022-11-21T04:22:43.464Z,100096.09
2022-11-21T04:25:13.883Z,100099.94
2022-11-21T04:27:45.625Z,100097.94
2022-11-21T04:30:18.355Z,100065.97
2022-11-21T04:32:49.975Z,100016.47
2022-11-21T04:35:20.313Z,100070.13
2022-11-21T04:37:50.542Z,99871.63
2022-11-21T04:40:21.041Z,100093.78
2022-11-21T04:43:00.267Z,100083.16
2022-11-21T04:45:31.618Z,99835.28
2022-11-21T04:48:02.483Z,99794.19
2022-11-21T04:50:35.771Z,99714.94
2022-11-21T04:53:05.983Z,100067.44
2022-11-21T04:55:37.132Z,100066.22
2022-11-21T04:58:09.207Z,100101.97
2022-11-21T05:00:39.672Z,99687.59
2022-11-21T05:03:10.126Z,99996.56
2022-11-21T05:05:43.598Z,100069.38
2022-11-21T05:08:15.252Z,99678.41
2022-11-21T05:11:05.500Z,99801.88
2022-11-21T05:13:37.998Z,99718.19
2022-11-21T05:16:09.112Z,99753.22
2022-11-21T05:18:41.140Z,99666.59
2022-11-21T05:21:17.925Z,99788.66
2022-11-21T05:23:48.430Z,99651.44
2022-11-21T05:26:20.994Z,99635.63
2022-11-21T05:28:54.209Z,99921.38
2022-11-21T05:31:24.820Z,99707.19
2022-11-21T05:33:55.376Z,100021.47
2022-11-21T05:36:28.918Z,99894.72
2022-11-21T05:38:59.863Z,99718.34
2022-11-21T05:41:29.590Z,100015.81
2022-11-21T05:50:41.691Z,100020.78
2022-11-21T05:53:14.515Z,100023.22
2022-11-21T05:55:56.016Z,100030.34
2022-11-21T05:58:26.651Z,100034.09
2022-11-21T06:01:01.700Z,99663.19
2022-11-21T06:03:37.896Z,99713.56
2022-11-21T06:09:53.204Z,99686.84
2022-11-21T06:12:25.833Z,99687.16
2022-11-21T06:14:55.781Z,99858.56
2022-11-21T06:17:31.458Z,99889.97
2022-11-21T06:20:07.260Z,99826.13
2022-11-21T06:22:37.106Z,100064.53
2022-11-21T06:45:49.561Z,99947.72
2022-11-21T06:48:34.106Z,99780.81
2022-11-21T06:51:07.043Z,99639.13
2022-11-21T06:58:05.383Z,99870.16
2022-11-21T07:11:59.545Z,99675.94
2022-11-21T07:16:22.363Z,100024.72
2022-11-21T07:19:01.010Z,99959.97
2022-11-21T07:22:18.245Z,99690.13
2022-11-21T07:29:04.202Z,99781.19
2022-11-21T07:35:56.411Z,100046.19
2022-11-21T07:43:11.097Z,99662.00
2022-11-21T07:45:51.136Z,99596.69
2022-11-21T08:13:00.527Z,99721.94
2022-11-21T10:06:19.534Z,99524.19
2022-11-21T10:09:04.676Z,99863.97
2022-11-21T10:12:01.464Z,99963.38
2022-11-21T10:15:04.329Z,99526.41
2022-11-21T10:24:23.233Z,99549.16
2022-11-21T10:27:02.139Z,99671.25
2022-11-21T10:29:41.939Z,99687.94
2022-11-21T10:32:35.584Z,99543.09
2022-11-21T10:35:17.438Z,99925.41
2022-11-21T10:37:55.710Z,99485.31
2022-11-21T10:40:43.278Z,99510.25
2022-11-21T10:43:51.452Z,99664.84
2022-11-21T10:46:22.744Z,99942.81
2022-11-21T10:48:58.326Z,99735.75
2022-11-21T10:51:48.799Z,99762.28
2022-11-21T10:54:37.074Z,99880.66
2022-11-21T10:57:15.437Z,99864.59
2022-11-21T11:00:00.954Z,99482.78
2022-11-21T11:02:35.740Z,99478.28
2022-11-21T11:05:21.839Z,99490.50
2022-11-21T11:08:08.666Z,99643.53
2022-11-21T11:10:49.685Z,99783.66
2022-11-21T11:13:47.670Z,99505.81
2022-11-21T11:16:21.963Z,99853.78
2022-11-21T11:19:33.989Z,99869.81
2022-11-21T11:22:30.089Z,99853.97
2022-11-21T11:25:00.912Z,99478.38
2022-11-21T11:27:33.971Z,99664.66
2022-11-21T11:30:10.376Z,99749.78
2022-11-21T11:32:42.451Z,99686.81
2022-11-21T11:35:24.281Z,99785.34
2022-11-21T11:38:02.663Z,99451.41
2022-11-21T11:40:39.633Z,99420.31
2022-11-21T11:43:48.827Z,99797.94
2022-11-21T11:47:03.701Z,99742.13
2022-11-21T11:49:59.203Z,99724.72
2022-11-21T11:52:34.811Z,99758.47
2022-11-21T11:55:09.778Z,99751.81
2022-11-21T11:57:40.613Z,99722.50
2022-11-21T12:00:26.455Z,99733.78
2022-11-21T12:03:04.401Z,99726.00
2022-11-21T12:05:34.647Z,99725.00
2022-11-21T12:08:41.540Z,99723.63
2022-11-21T12:11:35.596Z,99714.84
2022-11-21T12:14:34.756Z,99685.09
2022-11-21T12:17:07.939Z,99520.16
2022-11-21T12:19:41.002Z,99658.50
2022-11-21T12:22:12.735Z,99661.78
2022-11-21T12:24:43.471Z,99657.84
2022-11-21T12:27:28.757Z,99601.25
2022-11-21T12:30:24.565Z,99611.16
2022-11-21T12:33:02.365Z,99596.22
2022-11-21T12:36:14.199Z,99612.41
2022-11-21T12:39:07.400Z,99609.63
2022-11-21T12:42:03.113Z,99575.19
2022-11-21T12:44:55.178Z,99552.31
2022-11-21T12:48:01.178Z,99562.44
2022-11-21T12:50:59.407Z,99518.50
2022-11-21T12:53:58.104Z,99535.03
2022-11-21T12:56:41.271Z,99569.03
2022-11-21T12:59:16.665Z,99437.47
2022-11-21T13:01:58.170Z,99573.63
2022-11-21T13:04:32.467Z,99365.03
2022-11-21T13:07:09.266Z,99386.97
2022-11-21T13:09:43.256Z,99430.69
2022-11-21T13:12:20.383Z,99458.22
2022-11-21T13:14:55.093Z,99483.81
2022-11-21T13:17:38.641Z,99500.13
2022-11-21T13:20:21.433Z,99261.94
2022-11-21T13:22:56.381Z,99321.63
2022-11-21T13:25:48.336Z,99435.13
2022-11-21T13:28:39.091Z,99466.97
2022-11-21T13:31:38.518Z,99475.78
2022-11-21T13:34:39.249Z,99392.09
2022-11-21T13:37:08.860Z,99490.94
2022-11-21T13:39:49.395Z,99474.63
2022-11-21T13:42:58.369Z,99469.84
2022-11-21T13:45:43.690Z,99467.00
2022-11-21T13:48:28.286Z,99460.41
2022-11-21T13:55:19.343Z,99430.88
2022-11-21T13:58:06.932Z,99472.25
2022-11-21T14:01:05.229Z,99483.38
2022-11-21T14:03:57.704Z,99466.69
2022-11-21T14:06:38.885Z,99426.13
2022-11-21T14:09:25.152Z,99469.97
2022-11-21T14:12:00.389Z,99484.84
2022-11-21T14:14:33.327Z,99478.34
2022-11-21T14:17:39.161Z,99453.19
2022-11-21T14:20:18.461Z,99451.81
2022-11-21T14:22:55.277Z,99450.06
2022-11-21T14:25:30.013Z,99428.53
2022-11-21T14:28:07.765Z,99438.78
2022-11-21T14:34:00.126Z,99414.72
2022-11-21T14:36:30.501Z,99364.50
2022-11-21T14:42:07.352Z,99406.63
2022-11-21T14:44:48.340Z,99398.78
2022-11-21T14:47:25.766Z,99390.59
2022-11-21T14:50:06.941Z,99327.25
2022-11-21T14:52:37.724Z,99315.78
2022-11-21T14:55:30.184Z,99372.78
2022-11-21T14:57:59.585Z,99355.34
2022-11-21T15:03:30.149Z,99321.97
2022-11-21T15:10:26.130Z,99392.38
2022-11-21T15:12:45.845Z,99401.56
2022-11-21T15:15:38.560Z,99405.09
2022-11-21T15:22:36.721Z,99271.31
2022-11-21T15:25:40.545Z,99349.13
2022-11-21T15:28:28.783Z,99405.09
2022-11-21T15:31:21.706Z,99292.59
2022-11-21T15:34:33.631Z,99189.53
2022-11-21T15:37:08.457Z,99396.03
2022-11-21T15:39:48.612Z,99388.88
2022-11-21T15:42:39.590Z,99250.59
2022-11-21T15:45:26.822Z,99370.38
2022-11-21T15:47:57.792Z,99368.63
2022-11-21T15:50:30.681Z,99376.88
2022-11-21T15:52:59.848Z,99370.31
2022-11-21T15:55:33.272Z,99366.22
2022-11-21T15:58:08.353Z,99304.41
2022-11-21T16:00:39.356Z,99339.09
2022-11-21T16:03:10.305Z,99334.16
2022-11-21T16:05:40.358Z,99288.53
2022-11-21T16:08:11.636Z,99309.47
2022-11-21T16:10:41.588Z,99289.75
2022-11-21T16:13:12.074Z,99282.66
2022-11-21T16:15:42.350Z,99297.53
2022-11-21T16:18:55.261Z,99291.31
2022-11-21T16:21:28.629Z,99185.66
2022-11-21T16:24:07.566Z,98998.97
2022-11-21T16:26:42.844Z,99163.19
2022-11-21T16:29:14.601Z,99079.34
2022-11-21T16:31:46.880Z,99028.22
2022-11-21T16:34:23.021Z,99254.69
2022-11-21T16:36:53.240Z,99137.69
2022-11-21T16:39:32.659Z,98909.97
2022-11-21T16:42:03.357Z,99188.81
2022-11-21T16:44:34.275Z,99254.19
2022-11-21T16:47:11.932Z,98862.56
2022-11-21T16:49:48.374Z,98935.25
2022-11-21T16:52:19.302Z,99067.16
2022-11-21T16:54:52.273Z,99006.16
2022-11-21T16:57:23.519Z,99121.56
2022-11-21T16:59:57.767Z,98870.81
2022-11-21T17:02:30.363Z,99075.75
2022-11-21T17:05:03.362Z,99196.09
2022-11-21T17:07:33.636Z,98904.47
2022-11-21T17:10:07.622Z,99204.34
2022-11-21T17:12:39.129Z,99030.13
2022-11-21T17:15:12.869Z,99205.50
2022-11-21T17:17:43.836Z,98873.34
2022-11-21T17:20:15.328Z,99169.78
2022-11-21T17:22:47.161Z,98989.97
2022-11-21T17:25:20.269Z,98909.00
2022-11-21T17:27:50.736Z,99182.19
2022-11-21T17:30:21.774Z,98958.53
2022-11-21T17:32:51.657Z,99189.28
2022-11-21T17:35:23.175Z,98931.41
2022-11-21T17:37:53.763Z,98972.41
2022-11-21T17:40:24.234Z,98865.88
2022-11-21T17:42:57.888Z,99013.63
2022-11-21T17:45:30.508Z,98994.53
2022-11-21T17:48:00.547Z,99175.38
2022-11-21T17:50:32.690Z,98827.94
2022-11-21T17:53:10.375Z,99096.53
2022-11-21T17:55:43.671Z,99009.00
2022-11-21T17:58:14.226Z,99138.84
2022-11-21T18:00:46.712Z,99112.69
2022-11-21T18:03:17.657Z,98906.94
2022-11-21T18:06:18.778Z,98884.00
2022-11-21T18:08:49.560Z,98825.56
2022-11-21T18:11:23.424Z,98830.84
2022-11-21T18:13:54.237Z,99010.94
2022-11-21T18:16:31.375Z,99128.69
2022-11-21T18:22:52.928Z,98818.09
2022-11-21T18:25:22.523Z,99113.28
2022-11-21T18:27:54.879Z,98861.97
2022-11-21T18:30:30.551Z,99033.47
2022-11-21T18:33:00.444Z,98972.56
2022-11-21T18:35:30.122Z,99026.19
2022-11-21T18:38:01.194Z,99115.91
2022-11-21T18:40:34.295Z,99081.59
2022-11-21T18:43:03.921Z,99103.03
2022-11-21T18:46:10.069Z,99109.41
2022-11-21T18:49:01.599Z,98842.78
2022-11-21T18:51:32.632Z,98997.16
2022-11-21T18:54:07.507Z,98740.66
2022-11-21T18:56:41.620Z,98799.22
2022-11-21T18:59:15.696Z,99096.88
2022-11-21T19:02:15.290Z,98864.41
2022-11-21T19:04:51.242Z,99125.66
2022-11-21T19:07:22.360Z,98745.69
2022-11-21T19:10:14.526Z,98785.56
2022-11-21T19:12:47.697Z,99102.47
2022-11-21T19:15:20.683Z,98927.44
2022-11-21T19:17:50.458Z,99125.47
2022-11-21T19:20:21.290Z,99109.16
2022-11-21T19:22:52.585Z,99111.63
2022-11-21T19:25:24.341Z,99091.72
2022-11-21T19:27:53.716Z,99042.06
2022-11-21T19:30:23.571Z,99100.25
2022-11-21T19:32:53.374Z,99018.72
2022-11-21T19:35:23.788Z,99089.09
2022-11-21T19:37:53.981Z,99044.88
2022-11-21T19:40:25.380Z,99086.38
2022-11-21T19:43:41.752Z,99090.09
2022-11-21T19:46:12.153Z,99071.25
2022-11-21T19:48:42.482Z,99027.59
2022-11-21T19:51:11.999Z,99086.97
2022-11-21T19:53:44.360Z,99098.91
2022-11-21T19:56:17.400Z,99099.44
2022-11-21T19:58:47.406Z,99088.53
2022-11-21T20:01:19.731Z,99090.94
2022-11-21T20:03:50.428Z,99103.81
2022-11-21T20:06:21.790Z,99102.78
2022-11-21T20:08:52.880Z,99098.41
2022-11-21T20:11:25.028Z,99090.94
2022-11-21T20:13:54.752Z,99057.63
2022-11-21T20:16:25.728Z,99106.13
2022-11-21T20:19:00.118Z,99109.06
2022-11-21T20:21:30.566Z,99113.97
2022-11-21T20:24:00.742Z,98735.63
2022-11-21T20:26:33.233Z,99059.22
2022-11-21T20:29:02.887Z,98951.94
2022-11-21T20:31:33.956Z,99077.59
2022-11-21T20:34:05.548Z,99050.88
2022-11-21T20:36:39.576Z,99093.81
2022-11-21T20:39:13.906Z,99053.25
2022-11-21T20:41:47.381Z,99082.31
2022-11-21T20:47:09.921Z,99082.41
2022-11-21T20:49:40.882Z,99078.69
2022-11-21T20:55:04.323Z,99074.22
2022-11-21T20:57:35.716Z,99010.19
2022-11-21T21:00:14.721Z,98962.69
2022-11-21T21:02:49.988Z,99081.31
2022-11-21T21:05:19.764Z,99086.06
2022-11-21T21:07:49.906Z,98918.50
2022-11-21T21:10:22.653Z,99034.53
2022-11-21T21:12:55.595Z,99079.78
2022-11-21T21:15:28.704Z,98790.69
2022-11-21T21:18:03.843Z,99095.25
2022-11-21T21:20:44.364Z,98846.38
2022-11-21T21:23:26.512Z,99079.09
2022-11-21T21:25:56.473Z,98764.66
2022-11-21T21:28:27.225Z,99073.34
2022-11-21T21:30:56.829Z,99076.38
2022-11-21T21:33:29.546Z,99052.38
2022-11-21T21:36:06.465Z,98885.66
2022-11-21T21:38:36.579Z,98770.03
2022-11-21T21:41:13.406Z,98822.03
2022-11-21T21:43:46.576Z,98933.00
2022-11-21T21:46:19.438Z,99076.25
2022-11-21T21:48:49.466Z,98801.78
2022-11-21T21:51:21.391Z,99077.91
2022-11-21T21:53:54.243Z,99076.88
2022-11-21T21:56:24.691Z,99079.25
2022-11-21T21:58:56.128Z,99046.59
2022-11-21T22:01:29.824Z,99067.66
2022-11-21T22:03:59.276Z,99066.72
2022-11-21T22:06:29.563Z,99061.97
2022-11-21T22:08:58.797Z,99059.16
2022-11-21T22:11:28.864Z,99067.09
2022-11-21T22:14:01.163Z,98995.22
2022-11-21T22:16:31.043Z,99069.13
2022-11-21T22:19:01.006Z,99039.69
2022-11-21T22:21:32.673Z,99021.78
2022-11-21T22:24:24.321Z,99074.78
2022-11-21T22:26:53.877Z,99068.28
2022-11-21T22:29:29.298Z,98984.75
2022-11-21T22:31:59.305Z,98875.75
2022-11-21T22:34:28.974Z,98796.72
2022-11-21T22:36:58.906Z,98921.03
2022-11-21T22:39:31.517Z,98814.28
2022-11-21T22:42:01.512Z,98884.47
2022-11-21T22:44:32.352Z,99107.03
2022-11-21T22:47:02.359Z,99095.94
2022-11-21T22:49:31.698Z,98913.75
2022-11-21T22:52:00.934Z,98767.38
2022-11-21T22:54:31.386Z,98901.78
2022-11-21T22:57:01.099Z,98858.75
2022-11-21T22:59:31.833Z,99075.47
2022-11-21T23:02:02.684Z,99087.25
2022-11-21T23:04:32.274Z,98969.78
2022-11-21T23:07:01.733Z,99044.94
2022-11-21T23:09:31.291Z,99065.59
2022-11-21T23:12:00.822Z,99006.84
2022-11-21T23:14:31.565Z,99084.75
2022-11-21T23:17:00.815Z,99063.91
2022-11-21T23:19:31.179Z,99038.75
2022-11-21T23:22:00.239Z,99091.63
2022-11-21T23:24:29.965Z,99089.59
2022-11-21T23:26:59.055Z,99091.97
2022-11-21T23:29:33.023Z,99047.81
2022-11-21T23:32:04.836Z,99093.84
2022-11-21T23:34:33.914Z,99036.31
2022-11-21T23:37:03.116Z,99101.53
2022-11-21T23:39:32.438Z,99105.25
2022-11-21T23:42:01.447Z,99078.59
2022-11-21T23:44:33.771Z,99108.72
2022-11-21T23:47:03.028Z,99103.34
2022-11-21T23:49:32.039Z,99080.09
2022-11-21T23:52:01.379Z,99105.97
2022-11-21T23:54:30.763Z,99121.75
2022-11-21T23:56:59.975Z,99121.47
2022-11-21T23:59:29.039Z,99052.69
